sensor_id;sensor_type;location;lat;lon;timestamp;P1;durP1;ratioP1;P2;durP2;ratioP2
61009;SDS011;46897;55.340;86.082;2023-03-20T01:35:17;64.88;;;18.63;;
61009;SDS011;46897;55.340;86.082;2023-03-20T01:37:52;48.30;;;16.65;;
61009;SDS011;46897;55.340;86.082;2023-03-20T01:40:29;55.38;;;17.90;;
61009;SDS011;46897;55.340;86.082;2023-03-20T01:43:01;50.10;;;14.27;;
61009;SDS011;46897;55.340;86.082;2023-03-20T01:45:31;28.95;;;11.15;;
61009;SDS011;46897;55.340;86.082;2023-03-20T01:48:11;37.50;;;13.82;;
61009;SDS011;46897;55.340;86.082;2023-03-20T01:50:45;51.45;;;16.02;;
61009;SDS011;46897;55.340;86.082;2023-03-20T01:53:15;47.25;;;13.10;;
61009;SDS011;46897;55.340;86.082;2023-03-20T01:55:48;29.05;;;8.88;;
61009;SDS011;46897;55.340;86.082;2023-03-20T01:58:22;27.83;;;10.55;;
61009;SDS011;46897;55.340;86.082;2023-03-20T02:00:55;23.10;;;9.07;;
61009;SDS011;46897;55.340;86.082;2023-03-20T02:03:25;33.20;;;12.07;;
61009;SDS011;46897;55.340;86.082;2023-03-20T02:05:56;23.90;;;9.40;;
61009;SDS011;46897;55.340;86.082;2023-03-20T02:08:28;31.60;;;10.77;;
61009;SDS011;46897;55.340;86.082;2023-03-20T02:10:58;46.78;;;14.27;;
61009;SDS011;46897;55.340;86.082;2023-03-20T02:13:30;33.20;;;10.30;;
61009;SDS011;46897;55.340;86.082;2023-03-20T02:16:03;32.95;;;10.93;;
61009;SDS011;46897;55.340;86.082;2023-03-20T02:18:34;45.92;;;15.00;;
61009;SDS011;46897;55.340;86.082;2023-03-20T02:27:05;46.13;;;15.23;;
61009;SDS011;46897;55.340;86.082;2023-03-20T02:29:51;40.80;;;14.10;;
61009;SDS011;46897;55.340;86.082;2023-03-20T02:39:15;54.03;;;16.15;;
61009;SDS011;46897;55.340;86.082;2023-03-20T02:41:58;50.08;;;16.77;;
61009;SDS011;46897;55.340;86.082;2023-03-20T02:44:35;47.03;;;15.35;;
61009;SDS011;46897;55.340;86.082;2023-03-20T02:47:12;53.03;;;16.58;;
61009;SDS011;46897;55.340;86.082;2023-03-20T02:49:49;45.38;;;14.10;;
61009;SDS011;46897;55.340;86.082;2023-03-20T02:52:25;51.45;;;16.50;;
61009;SDS011;46897;55.340;86.082;2023-03-20T02:55:09;37.50;;;12.13;;
61009;SDS011;46897;55.340;86.082;2023-03-20T02:57:46;49.90;;;14.13;;
61009;SDS011;46897;55.340;86.082;2023-03-20T03:00:23;37.60;;;12.18;;
61009;SDS011;46897;55.340;86.082;2023-03-20T03:02:57;18.80;;;6.88;;
61009;SDS011;46897;55.340;86.082;2023-03-20T03:05:35;31.33;;;9.30;;
61009;SDS011;46897;55.340;86.082;2023-03-20T03:08:07;22.75;;;8.98;;
61009;SDS011;46897;55.340;86.082;2023-03-20T03:10:43;28.80;;;9.40;;
61009;SDS011;46897;55.340;86.082;2023-03-20T03:13:17;41.40;;;10.60;;
61009;SDS011;46897;55.340;86.082;2023-03-20T03:15:51;30.48;;;9.82;;
61009;SDS011;46897;55.340;86.082;2023-03-20T03:18:23;22.42;;;7.93;;
61009;SDS011;46897;55.340;86.082;2023-03-20T03:20:54;26.95;;;9.65;;
61009;SDS011;46897;55.340;86.082;2023-03-20T03:23:29;20.52;;;8.32;;
61009;SDS011;46897;55.340;86.082;2023-03-20T03:26:02;23.98;;;7.80;;
61009;SDS011;46897;55.340;86.082;2023-03-20T03:28:35;35.35;;;11.27;;
61009;SDS011;46897;55.340;86.082;2023-03-20T03:31:08;24.33;;;8.32;;
61009;SDS011;46897;55.340;86.082;2023-03-20T03:33:41;31.58;;;9.27;;
61009;SDS011;46897;55.340;86.082;2023-03-20T03:36:15;32.28;;;10.27;;
61009;SDS011;46897;55.340;86.082;2023-03-20T03:38:54;32.67;;;10.10;;
61009;SDS011;46897;55.340;86.082;2023-03-20T03:41:30;21.17;;;7.32;;
61009;SDS011;46897;55.340;86.082;2023-03-20T03:44:05;41.30;;;14.80;;
61009;SDS011;46897;55.340;86.082;2023-03-20T03:46:40;42.28;;;13.38;;
61009;SDS011;46897;55.340;86.082;2023-03-20T03:49:15;51.38;;;17.05;;
61009;SDS011;46897;55.340;86.082;2023-03-20T03:51:49;46.57;;;14.63;;
61009;SDS011;46897;55.340;86.082;2023-03-20T03:54:22;47.10;;;15.40;;
61009;SDS011;46897;55.340;86.082;2023-03-20T03:56:58;42.17;;;15.90;;
61009;SDS011;46897;55.340;86.082;2023-03-20T03:59:30;46.45;;;13.50;;
61009;SDS011;46897;55.340;86.082;2023-03-20T04:02:04;61.50;;;19.27;;
61009;SDS011;46897;55.340;86.082;2023-03-20T04:04:37;30.65;;;10.30;;
61009;SDS011;46897;55.340;86.082;2023-03-20T04:07:10;28.15;;;9.05;;
61009;SDS011;46897;55.340;86.082;2023-03-20T04:09:41;24.23;;;8.18;;
61009;SDS011;46897;55.340;86.082;2023-03-20T04:12:17;21.27;;;8.48;;
61009;SDS011;46897;55.340;86.082;2023-03-20T04:15:02;25.15;;;7.47;;
61009;SDS011;46897;55.340;86.082;2023-03-20T04:17:33;26.92;;;8.48;;
61009;SDS011;46897;55.340;86.082;2023-03-20T04:20:03;22.98;;;7.95;;
61009;SDS011;46897;55.340;86.082;2023-03-20T04:22:34;26.42;;;8.50;;
61009;SDS011;46897;55.340;86.082;2023-03-20T04:25:04;22.20;;;7.25;;
61009;SDS011;46897;55.340;86.082;2023-03-20T04:27:36;19.52;;;8.00;;
61009;SDS011;46897;55.340;86.082;2023-03-20T04:30:05;32.30;;;9.80;;
61009;SDS011;46897;55.340;86.082;2023-03-20T04:32:35;24.73;;;8.75;;
61009;SDS011;46897;55.340;86.082;2023-03-20T04:35:05;20.48;;;7.20;;
61009;SDS011;46897;55.340;86.082;2023-03-20T04:37:35;16.27;;;5.95;;
61009;SDS011;46897;55.340;86.082;2023-03-20T04:40:04;15.02;;;4.35;;
61009;SDS011;46897;55.340;86.082;2023-03-20T04:42:37;12.88;;;4.63;;
61009;SDS011;46897;55.340;86.082;2023-03-20T04:45:06;8.65;;;3.88;;
61009;SDS011;46897;55.340;86.082;2023-03-20T04:47:36;16.10;;;4.13;;
61009;SDS011;46897;55.340;86.082;2023-03-20T04:50:06;14.45;;;4.20;;
61009;SDS011;46897;55.340;86.082;2023-03-20T04:52:36;8.10;;;3.63;;
61009;SDS011;46897;55.340;86.082;2023-03-20T04:55:06;12.32;;;3.80;;
61009;SDS011;46897;55.340;86.082;2023-03-20T04:57:39;9.23;;;3.55;;
61009;SDS011;46897;55.340;86.082;2023-03-20T05:00:09;19.55;;;5.80;;
61009;SDS011;46897;55.340;86.082;2023-03-20T05:02:39;15.52;;;5.13;;
61009;SDS011;46897;55.340;86.082;2023-03-20T05:05:08;12.05;;;4.82;;
61009;SDS011;46897;55.340;86.082;2023-03-20T05:07:37;12.00;;;4.97;;
61009;SDS011;46897;55.340;86.082;2023-03-20T05:10:09;14.80;;;4.47;;
61009;SDS011;46897;55.340;86.082;2023-03-20T05:12:41;13.02;;;4.32;;
61009;SDS011;46897;55.340;86.082;2023-03-20T05:15:11;15.15;;;5.38;;
61009;SDS011;46897;55.340;86.082;2023-03-20T05:17:40;13.00;;;4.28;;
61009;SDS011;46897;55.340;86.082;2023-03-20T05:20:10;12.15;;;4.45;;
61009;SDS011;46897;55.340;86.082;2023-03-20T05:22:39;9.98;;;3.58;;
61009;SDS011;46897;55.340;86.082;2023-03-20T05:25:08;14.23;;;4.38;;
61009;SDS011;46897;55.340;86.082;2023-03-20T05:27:38;12.32;;;3.95;;
61009;SDS011;46897;55.340;86.082;2023-03-20T05:30:10;6.60;;;2.97;;
61009;SDS011;46897;55.340;86.082;2023-03-20T05:32:40;9.05;;;3.80;;
61009;SDS011;46897;55.340;86.082;2023-03-20T05:35:10;8.07;;;3.65;;
61009;SDS011;46897;55.340;86.082;2023-03-20T05:37:40;9.60;;;3.88;;
61009;SDS011;46897;55.340;86.082;2023-03-20T05:40:11;7.97;;;3.17;;
61009;SDS011;46897;55.340;86.082;2023-03-20T05:42:41;8.73;;;3.10;;
61009;SDS011;46897;55.340;86.082;2023-03-20T05:45:14;6.72;;;2.67;;
61009;SDS011;46897;55.340;86.082;2023-03-20T05:47:43;6.55;;;2.65;;
61009;SDS011;46897;55.340;86.082;2023-03-20T05:50:12;10.57;;;3.38;;
61009;SDS011;46897;55.340;86.082;2023-03-20T05:52:42;12.38;;;3.15;;
61009;SDS011;46897;55.340;86.082;2023-03-20T05:55:14;6.60;;;2.97;;
61009;SDS011;46897;55.340;86.082;2023-03-20T05:57:43;6.85;;;2.67;;
61009;SDS011;46897;55.340;86.082;2023-03-20T06:00:15;8.00;;;3.00;;
61009;SDS011;46897;55.340;86.082;2023-03-20T06:02:44;8.57;;;2.70;;
61009;SDS011;46897;55.340;86.082;2023-03-20T06:05:14;7.55;;;2.88;;
61009;SDS011;46897;55.340;86.082;2023-03-20T06:07:43;5.55;;;2.47;;
61009;SDS011;46897;55.340;86.082;2023-03-20T06:10:13;5.55;;;2.13;;
61009;SDS011;46897;55.340;86.082;2023-03-20T06:12:42;7.20;;;2.60;;
61009;SDS011;46897;55.340;86.082;2023-03-20T06:15:12;7.05;;;3.00;;
61009;SDS011;46897;55.340;86.082;2023-03-20T06:17:42;10.93;;;3.67;;
61009;SDS011;46897;55.340;86.082;2023-03-20T06:20:12;13.48;;;3.33;;
61009;SDS011;46897;55.340;86.082;2023-03-20T06:22:42;10.90;;;3.17;;
61009;SDS011;46897;55.340;86.082;2023-03-20T06:25:11;12.88;;;3.22;;
61009;SDS011;46897;55.340;86.082;2023-03-20T06:27:41;7.72;;;3.30;;
61009;SDS011;46897;55.340;86.082;2023-03-20T06:30:11;9.55;;;3.80;;
61009;SDS011;46897;55.340;86.082;2023-03-20T06:32:44;9.73;;;3.15;;
61009;SDS011;46897;55.340;86.082;2023-03-20T06:35:14;8.15;;;2.88;;
61009;SDS011;46897;55.340;86.082;2023-03-20T06:37:44;11.35;;;3.40;;
61009;SDS011;46897;55.340;86.082;2023-03-20T06:40:13;10.60;;;3.67;;
61009;SDS011;46897;55.340;86.082;2023-03-20T06:42:42;10.75;;;3.58;;
61009;SDS011;46897;55.340;86.082;2023-03-20T06:45:11;12.27;;;3.92;;
61009;SDS011;46897;55.340;86.082;2023-03-20T06:47:42;6.55;;;2.15;;
61009;SDS011;46897;55.340;86.082;2023-03-20T06:50:13;9.20;;;4.07;;
61009;SDS011;46897;55.340;86.082;2023-03-20T06:52:45;8.73;;;2.65;;
61009;SDS011;46897;55.340;86.082;2023-03-20T06:55:14;3.17;;;1.60;;
61009;SDS011;46897;55.340;86.082;2023-03-20T06:57:44;3.88;;;1.50;;
61009;SDS011;46897;55.340;86.082;2023-03-20T07:00:16;5.15;;;1.65;;
61009;SDS011;46897;55.340;86.082;2023-03-20T07:02:47;5.68;;;2.42;;
61009;SDS011;46897;55.340;86.082;2023-03-20T07:05:17;4.70;;;1.88;;
61009;SDS011;46897;55.340;86.082;2023-03-20T07:07:49;3.85;;;1.88;;
61009;SDS011;46897;55.340;86.082;2023-03-20T07:10:18;4.35;;;2.33;;
61009;SDS011;46897;55.340;86.082;2023-03-20T07:12:50;6.15;;;2.58;;
61009;SDS011;46897;55.340;86.082;2023-03-20T07:15:29;6.32;;;2.40;;
61009;SDS011;46897;55.340;86.082;2023-03-20T07:18:26;4.50;;;2.30;;
61009;SDS011;46897;55.340;86.082;2023-03-20T07:20:58;5.65;;;2.20;;
61009;SDS011;46897;55.340;86.082;2023-03-20T07:23:48;4.35;;;1.80;;
61009;SDS011;46897;55.340;86.082;2023-03-20T07:26:27;4.32;;;1.85;;
61009;SDS011;46897;55.340;86.082;2023-03-20T07:28:59;5.93;;;1.83;;
61009;SDS011;46897;55.340;86.082;2023-03-20T07:31:29;4.18;;;1.80;;
61009;SDS011;46897;55.340;86.082;2023-03-20T07:33:59;4.70;;;1.50;;
61009;SDS011;46897;55.340;86.082;2023-03-20T07:36:28;4.07;;;1.70;;
61009;SDS011;46897;55.340;86.082;2023-03-20T07:38:59;2.03;;;1.20;;
61009;SDS011;46897;55.340;86.082;2023-03-20T07:41:28;6.05;;;1.80;;
61009;SDS011;46897;55.340;86.082;2023-03-20T07:43:58;6.30;;;1.95;;
61009;SDS011;46897;55.340;86.082;2023-03-20T07:46:27;3.47;;;1.60;;
61009;SDS011;46897;55.340;86.082;2023-03-20T07:48:58;4.22;;;1.27;;
61009;SDS011;46897;55.340;86.082;2023-03-20T07:51:27;2.88;;;1.10;;
61009;SDS011;46897;55.340;86.082;2023-03-20T07:53:56;2.25;;;1.25;;
61009;SDS011;46897;55.340;86.082;2023-03-20T07:56:25;5.03;;;1.95;;
61009;SDS011;46897;55.340;86.082;2023-03-20T07:58:54;3.58;;;1.45;;
61009;SDS011;46897;55.340;86.082;2023-03-20T08:01:30;5.85;;;1.45;;
61009;SDS011;46897;55.340;86.082;2023-03-20T08:04:01;5.25;;;1.13;;
61009;SDS011;46897;55.340;86.082;2023-03-20T08:06:30;3.05;;;1.63;;
61009;SDS011;46897;55.340;86.082;2023-03-20T08:09:00;4.60;;;1.52;;
61009;SDS011;46897;55.340;86.082;2023-03-20T08:11:29;7.30;;;2.35;;
61009;SDS011;46897;55.340;86.082;2023-03-20T08:14:00;5.32;;;2.20;;
61009;SDS011;46897;55.340;86.082;2023-03-20T08:16:30;6.57;;;2.05;;
61009;SDS011;46897;55.340;86.082;2023-03-20T08:19:02;6.13;;;2.58;;
61009;SDS011;46897;55.340;86.082;2023-03-20T08:21:33;4.15;;;1.55;;
61009;SDS011;46897;55.340;86.082;2023-03-20T08:24:02;4.00;;;2.20;;
61009;SDS011;46897;55.340;86.082;2023-03-20T08:26:32;7.43;;;2.90;;
61009;SDS011;46897;55.340;86.082;2023-03-20T08:29:02;5.55;;;2.60;;
61009;SDS011;46897;55.340;86.082;2023-03-20T08:31:33;7.72;;;3.15;;
61009;SDS011;46897;55.340;86.082;2023-03-20T08:34:04;4.95;;;2.10;;
61009;SDS011;46897;55.340;86.082;2023-03-20T08:36:33;11.07;;;3.65;;
61009;SDS011;46897;55.340;86.082;2023-03-20T08:39:02;7.00;;;2.63;;
61009;SDS011;46897;55.340;86.082;2023-03-20T08:41:32;5.72;;;2.17;;
61009;SDS011;46897;55.340;86.082;2023-03-20T08:44:05;6.18;;;2.33;;
61009;SDS011;46897;55.340;86.082;2023-03-20T08:46:34;6.63;;;2.22;;
61009;SDS011;46897;55.340;86.082;2023-03-20T08:49:07;7.57;;;2.63;;
61009;SDS011;46897;55.340;86.082;2023-03-20T08:51:39;14.82;;;3.95;;
61009;SDS011;46897;55.340;86.082;2023-03-20T08:54:09;6.88;;;2.08;;
61009;SDS011;46897;55.340;86.082;2023-03-20T08:56:38;6.28;;;2.15;;
61009;SDS011;46897;55.340;86.082;2023-03-20T08:59:08;4.45;;;1.70;;
61009;SDS011;46897;55.340;86.082;2023-03-20T09:01:37;9.18;;;2.65;;
61009;SDS011;46897;55.340;86.082;2023-03-20T09:04:17;3.92;;;1.83;;
61009;SDS011;46897;55.340;86.082;2023-03-20T09:06:47;6.40;;;2.70;;
61009;SDS011;46897;55.340;86.082;2023-03-20T09:09:17;6.57;;;2.03;;
61009;SDS011;46897;55.340;86.082;2023-03-20T09:11:53;6.13;;;2.38;;
61009;SDS011;46897;55.340;86.082;2023-03-20T09:14:22;8.30;;;2.88;;
61009;SDS011;46897;55.340;86.082;2023-03-20T09:16:52;6.13;;;2.10;;
61009;SDS011;46897;55.340;86.082;2023-03-20T09:19:23;6.55;;;2.30;;
61009;SDS011;46897;55.340;86.082;2023-03-20T09:21:52;5.90;;;2.55;;
61009;SDS011;46897;55.340;86.082;2023-03-20T09:24:22;4.68;;;1.67;;
61009;SDS011;46897;55.340;86.082;2023-03-20T09:26:51;9.20;;;2.78;;
61009;SDS011;46897;55.340;86.082;2023-03-20T09:29:20;5.93;;;2.13;;
61009;SDS011;46897;55.340;86.082;2023-03-20T09:31:51;8.48;;;2.45;;
61009;SDS011;46897;55.340;86.082;2023-03-20T09:34:21;5.88;;;2.13;;
61009;SDS011;46897;55.340;86.082;2023-03-20T09:36:51;4.03;;;1.73;;
61009;SDS011;46897;55.340;86.082;2023-03-20T09:39:21;5.00;;;2.10;;
61009;SDS011;46897;55.340;86.082;2023-03-20T09:41:50;6.95;;;2.53;;
61009;SDS011;46897;55.340;86.082;2023-03-20T09:44:29;4.57;;;1.77;;
61009;SDS011;46897;55.340;86.082;2023-03-20T09:47:15;6.75;;;2.05;;
61009;SDS011;46897;55.340;86.082;2023-03-20T09:49:57;5.53;;;2.80;;
61009;SDS011;46897;55.340;86.082;2023-03-20T09:52:41;5.18;;;1.70;;
61009;SDS011;46897;55.340;86.082;2023-03-20T09:55:19;7.55;;;2.38;;
61009;SDS011;46897;55.340;86.082;2023-03-20T09:57:53;2.88;;;1.40;;
61009;SDS011;46897;55.340;86.082;2023-03-20T10:03:31;4.95;;;1.95;;
61009;SDS011;46897;55.340;86.082;2023-03-20T10:06:12;5.22;;;2.03;;
61009;SDS011;46897;55.340;86.082;2023-03-20T10:08:44;5.40;;;1.60;;
61009;SDS011;46897;55.340;86.082;2023-03-20T10:11:18;7.47;;;1.98;;
61009;SDS011;46897;55.340;86.082;2023-03-20T10:14:11;4.97;;;1.92;;
61009;SDS011;46897;55.340;86.082;2023-03-20T10:16:54;5.10;;;2.17;;
61009;SDS011;46897;55.340;86.082;2023-03-20T10:19:35;5.50;;;2.13;;
61009;SDS011;46897;55.340;86.082;2023-03-20T10:22:18;6.18;;;1.85;;
61009;SDS011;46897;55.340;86.082;2023-03-20T10:24:53;6.32;;;2.50;;
61009;SDS011;46897;55.340;86.082;2023-03-20T10:27:29;8.32;;;2.47;;
61009;SDS011;46897;55.340;86.082;2023-03-20T10:30:15;4.43;;;1.67;;
61009;SDS011;46897;55.340;86.082;2023-03-20T10:32:59;4.95;;;1.58;;
61009;SDS011;46897;55.340;86.082;2023-03-20T10:35:44;6.13;;;2.08;;
61009;SDS011;46897;55.340;86.082;2023-03-20T10:38:25;6.97;;;2.85;;
61009;SDS011;46897;55.340;86.082;2023-03-20T10:41:06;6.70;;;3.00;;
61009;SDS011;46897;55.340;86.082;2023-03-20T10:43:50;7.25;;;3.38;;
61009;SDS011;46897;55.340;86.082;2023-03-20T10:46:20;8.50;;;2.88;;
61009;SDS011;46897;55.340;86.082;2023-03-20T10:48:56;7.45;;;3.00;;
61009;SDS011;46897;55.340;86.082;2023-03-20T10:51:32;7.95;;;2.78;;
61009;SDS011;46897;55.340;86.082;2023-03-20T10:54:12;7.60;;;2.80;;
61009;SDS011;46897;55.340;86.082;2023-03-20T10:56:50;5.45;;;2.88;;
61009;SDS011;46897;55.340;86.082;2023-03-20T10:59:23;9.27;;;2.70;;
61009;SDS011;46897;55.340;86.082;2023-03-20T11:01:54;8.82;;;3.55;;
61009;SDS011;46897;55.340;86.082;2023-03-20T11:04:24;6.88;;;2.75;;
61009;SDS011;46897;55.340;86.082;2023-03-20T11:06:57;8.45;;;3.28;;
61009;SDS011;46897;55.340;86.082;2023-03-20T11:09:38;10.00;;;3.33;;
61009;SDS011;46897;55.340;86.082;2023-03-20T11:12:13;7.15;;;2.58;;
61009;SDS011;46897;55.340;86.082;2023-03-20T11:14:48;9.35;;;3.15;;
61009;SDS011;46897;55.340;86.082;2023-03-20T11:17:18;8.07;;;2.90;;
61009;SDS011;46897;55.340;86.082;2023-03-20T11:19:51;6.88;;;2.70;;
61009;SDS011;46897;55.340;86.082;2023-03-20T11:22:22;6.70;;;2.47;;
61009;SDS011;46897;55.340;86.082;2023-03-20T11:25:00;6.50;;;2.25;;
61009;SDS011;46897;55.340;86.082;2023-03-20T11:27:30;8.57;;;2.63;;
61009;SDS011;46897;55.340;86.082;2023-03-20T11:30:03;8.57;;;2.28;;
61009;SDS011;46897;55.340;86.082;2023-03-20T11:32:39;5.13;;;2.40;;
61009;SDS011;46897;55.340;86.082;2023-03-20T11:35:18;6.47;;;2.80;;
61009;SDS011;46897;55.340;86.082;2023-03-20T11:37:50;9.65;;;2.83;;
61009;SDS011;46897;55.340;86.082;2023-03-20T11:40:24;9.05;;;2.70;;
61009;SDS011;46897;55.340;86.082;2023-03-20T11:43:02;10.15;;;3.95;;
61009;SDS011;46897;55.340;86.082;2023-03-20T11:45:38;6.25;;;2.35;;
61009;SDS011;46897;55.340;86.082;2023-03-20T11:48:13;10.98;;;2.75;;
61009;SDS011;46897;55.340;86.082;2023-03-20T11:50:46;10.68;;;2.97;;
61009;SDS011;46897;55.340;86.082;2023-03-20T11:53:22;4.30;;;2.17;;
61009;SDS011;46897;55.340;86.082;2023-03-20T11:55:59;5.47;;;2.45;;
61009;SDS011;46897;55.340;86.082;2023-03-20T11:58:32;7.20;;;2.67;;
61009;SDS011;46897;55.340;86.082;2023-03-20T12:01:04;9.35;;;2.80;;
61009;SDS011;46897;55.340;86.082;2023-03-20T12:03:40;6.78;;;2.22;;
61009;SDS011;46897;55.340;86.082;2023-03-20T12:06:14;9.13;;;3.63;;
61009;SDS011;46897;55.340;86.082;2023-03-20T12:08:46;7.40;;;2.58;;
61009;SDS011;46897;55.340;86.082;2023-03-20T12:11:23;9.15;;;3.25;;
61009;SDS011;46897;55.340;86.082;2023-03-20T12:14:02;12.50;;;4.72;;
61009;SDS011;46897;55.340;86.082;2023-03-20T12:16:40;16.98;;;5.30;;
61009;SDS011;46897;55.340;86.082;2023-03-20T12:19:10;21.23;;;7.13;;
61009;SDS011;46897;55.340;86.082;2023-03-20T12:21:45;24.02;;;7.72;;
61009;SDS011;46897;55.340;86.082;2023-03-20T12:24:23;17.77;;;7.07;;
61009;SDS011;46897;55.340;86.082;2023-03-20T12:26:59;24.20;;;7.88;;
61009;SDS011;46897;55.340;86.082;2023-03-20T12:29:45;33.78;;;7.72;;
61009;SDS011;46897;55.340;86.082;2023-03-20T12:32:21;27.70;;;8.38;;
61009;SDS011;46897;55.340;86.082;2023-03-20T12:34:55;35.60;;;10.93;;
61009;SDS011;46897;55.340;86.082;2023-03-20T12:37:30;113.53;;;26.88;;
61009;SDS011;46897;55.340;86.082;2023-03-20T12:40:00;139.02;;;30.70;;
61009;SDS011;46897;55.340;86.082;2023-03-20T12:42:38;111.32;;;29.08;;
61009;SDS011;46897;55.340;86.082;2023-03-20T12:45:19;62.55;;;19.25;;
61009;SDS011;46897;55.340;86.082;2023-03-20T12:47:56;53.05;;;17.67;;
61009;SDS011;46897;55.340;86.082;2023-03-20T12:50:34;53.63;;;18.23;;
61009;SDS011;46897;55.340;86.082;2023-03-20T12:53:15;75.85;;;19.33;;
61009;SDS011;46897;55.340;86.082;2023-03-20T12:55:58;79.70;;;20.55;;
61009;SDS011;46897;55.340;86.082;2023-03-20T12:58:40;73.50;;;21.08;;
61009;SDS011;46897;55.340;86.082;2023-03-20T13:01:15;82.57;;;24.30;;
61009;SDS011;46897;55.340;86.082;2023-03-20T13:03:54;106.93;;;31.95;;
61009;SDS011;46897;55.340;86.082;2023-03-20T13:06:46;97.95;;;28.95;;
61009;SDS011;46897;55.340;86.082;2023-03-20T13:12:25;64.50;;;18.58;;
61009;SDS011;46897;55.340;86.082;2023-03-20T13:15:08;96.68;;;28.42;;
61009;SDS011;46897;55.340;86.082;2023-03-20T13:17:49;102.45;;;28.52;;
61009;SDS011;46897;55.340;86.082;2023-03-20T13:20:24;104.20;;;30.23;;
61009;SDS011;46897;55.340;86.082;2023-03-20T13:22:58;101.50;;;27.73;;
61009;SDS011;46897;55.340;86.082;2023-03-20T13:25:43;72.88;;;24.08;;
61009;SDS011;46897;55.340;86.082;2023-03-20T13:28:23;80.97;;;25.43;;
61009;SDS011;46897;55.340;86.082;2023-03-20T13:31:04;64.32;;;19.92;;
61009;SDS011;46897;55.340;86.082;2023-03-20T13:33:43;67.05;;;17.88;;
61009;SDS011;46897;55.340;86.082;2023-03-20T13:36:21;56.22;;;16.60;;
61009;SDS011;46897;55.340;86.082;2023-03-20T13:39:02;59.70;;;18.02;;
61009;SDS011;46897;55.340;86.082;2023-03-20T13:41:40;46.38;;;14.00;;
61009;SDS011;46897;55.340;86.082;2023-03-20T13:44:11;69.47;;;18.33;;
61009;SDS011;46897;55.340;86.082;2023-03-20T13:46:48;51.53;;;17.92;;
61009;SDS011;46897;55.340;86.082;2023-03-20T13:49:23;63.85;;;16.83;;
61009;SDS011;46897;55.340;86.082;2023-03-20T13:52:02;48.08;;;15.63;;
61009;SDS011;46897;55.340;86.082;2023-03-20T13:54:38;47.55;;;14.70;;
61009;SDS011;46897;55.340;86.082;2023-03-20T13:57:22;51.55;;;15.40;;
61009;SDS011;46897;55.340;86.082;2023-03-20T14:00:04;45.88;;;13.68;;
61009;SDS011;46897;55.340;86.082;2023-03-20T14:02:55;38.60;;;11.45;;
61009;SDS011;46897;55.340;86.082;2023-03-20T14:05:38;49.75;;;15.63;;
61009;SDS011;46897;55.340;86.082;2023-03-20T14:08:20;80.68;;;23.58;;
61009;SDS011;46897;55.340;86.082;2023-03-20T14:11:05;85.93;;;23.70;;
61009;SDS011;46897;55.340;86.082;2023-03-20T14:13:42;75.80;;;22.58;;
61009;SDS011;46897;55.340;86.082;2023-03-20T14:16:16;69.07;;;21.75;;
61009;SDS011;46897;55.340;86.082;2023-03-20T14:18:49;61.13;;;19.08;;
61009;SDS011;46897;55.340;86.082;2023-03-20T14:24:52;65.07;;;20.08;;
61009;SDS011;46897;55.340;86.082;2023-03-20T14:27:29;61.40;;;18.92;;
61009;SDS011;46897;55.340;86.082;2023-03-20T14:30:42;62.33;;;17.73;;
61009;SDS011;46897;55.340;86.082;2023-03-20T14:33:36;67.00;;;21.42;;
61009;SDS011;46897;55.340;86.082;2023-03-20T14:36:49;67.60;;;21.08;;
61009;SDS011;46897;55.340;86.082;2023-03-20T14:40:05;61.15;;;20.92;;
61009;SDS011;46897;55.340;86.082;2023-03-20T14:42:50;71.07;;;19.83;;
61009;SDS011;46897;55.340;86.082;2023-03-20T14:45:28;55.40;;;18.02;;
61009;SDS011;46897;55.340;86.082;2023-03-20T14:48:10;56.97;;;18.98;;
61009;SDS011;46897;55.340;86.082;2023-03-20T14:50:54;50.30;;;14.88;;
61009;SDS011;46897;55.340;86.082;2023-03-20T14:53:48;39.58;;;13.38;;
61009;SDS011;46897;55.340;86.082;2023-03-20T14:56:30;41.55;;;13.52;;
61009;SDS011;46897;55.340;86.082;2023-03-20T14:59:02;47.20;;;13.30;;
61009;SDS011;46897;55.340;86.082;2023-03-20T15:01:44;41.50;;;12.30;;
61009;SDS011;46897;55.340;86.082;2023-03-20T15:04:19;41.20;;;13.18;;
61009;SDS011;46897;55.340;86.082;2023-03-20T15:06:56;44.97;;;15.13;;
61009;SDS011;46897;55.340;86.082;2023-03-20T15:09:30;72.65;;;21.75;;
61009;SDS011;46897;55.340;86.082;2023-03-20T15:12:02;88.35;;;25.65;;
61009;SDS011;46897;55.340;86.082;2023-03-20T15:14:33;96.07;;;29.20;;
61009;SDS011;46897;55.340;86.082;2023-03-20T15:17:15;98.07;;;32.35;;
61009;SDS011;46897;55.340;86.082;2023-03-20T15:19:47;110.80;;;35.60;;
61009;SDS011;46897;55.340;86.082;2023-03-20T15:22:20;84.35;;;30.17;;
61009;SDS011;46897;55.340;86.082;2023-03-20T15:24:54;99.63;;;30.20;;
61009;SDS011;46897;55.340;86.082;2023-03-20T15:27:25;81.13;;;24.00;;
61009;SDS011;46897;55.340;86.082;2023-03-20T15:30:00;76.80;;;22.83;;
61009;SDS011;46897;55.340;86.082;2023-03-20T15:35:05;54.58;;;14.43;;
61009;SDS011;46897;55.340;86.082;2023-03-20T15:37:36;37.17;;;11.77;;
61009;SDS011;46897;55.340;86.082;2023-03-20T15:40:13;31.80;;;11.15;;
61009;SDS011;46897;55.340;86.082;2023-03-20T15:43:10;19.80;;;7.53;;
61009;SDS011;46897;55.340;86.082;2023-03-20T15:45:47;17.25;;;6.75;;
61009;SDS011;46897;55.340;86.082;2023-03-20T15:48:18;30.42;;;8.60;;
61009;SDS011;46897;55.340;86.082;2023-03-20T15:50:55;38.00;;;12.15;;
61009;SDS011;46897;55.340;86.082;2023-03-20T15:53:29;46.78;;;14.25;;
61009;SDS011;46897;55.340;86.082;2023-03-20T15:56:03;52.33;;;14.30;;
61009;SDS011;46897;55.340;86.082;2023-03-20T15:58:44;59.78;;;18.85;;
61009;SDS011;46897;55.340;86.082;2023-03-20T16:01:21;57.20;;;17.65;;
61009;SDS011;46897;55.340;86.082;2023-03-20T16:04:41;74.03;;;19.40;;
61009;SDS011;46897;55.340;86.082;2023-03-20T16:07:25;65.35;;;19.95;;
61009;SDS011;46897;55.340;86.082;2023-03-20T16:09:57;82.97;;;22.55;;
61009;SDS011;46897;55.340;86.082;2023-03-20T16:12:28;83.47;;;22.73;;
61009;SDS011;46897;55.340;86.082;2023-03-20T16:14:58;74.30;;;20.30;;
61009;SDS011;46897;55.340;86.082;2023-03-20T16:17:30;70.22;;;20.20;;
61009;SDS011;46897;55.340;86.082;2023-03-20T16:20:02;62.13;;;17.50;;
61009;SDS011;46897;55.340;86.082;2023-03-20T16:22:32;59.22;;;20.35;;
61009;SDS011;46897;55.340;86.082;2023-03-20T16:25:01;63.70;;;18.30;;
61009;SDS011;46897;55.340;86.082;2023-03-20T16:27:34;57.10;;;17.23;;
61009;SDS011;46897;55.340;86.082;2023-03-20T16:30:04;45.65;;;15.45;;
61009;SDS011;46897;55.340;86.082;2023-03-20T16:32:37;57.10;;;17.88;;
61009;SDS011;46897;55.340;86.082;2023-03-20T16:35:11;58.38;;;17.27;;
61009;SDS011;46897;55.340;86.082;2023-03-20T16:37:47;43.30;;;13.00;;
61009;SDS011;46897;55.340;86.082;2023-03-20T16:40:20;51.22;;;14.10;;
61009;SDS011;46897;55.340;86.082;2023-03-20T16:43:04;48.95;;;11.27;;
61009;SDS011;46897;55.340;86.082;2023-03-20T16:45:34;48.65;;;12.77;;
61009;SDS011;46897;55.340;86.082;2023-03-20T16:50:57;44.83;;;13.43;;
61009;SDS011;46897;55.340;86.082;2023-03-20T16:53:30;51.60;;;16.17;;
61009;SDS011;46897;55.340;86.082;2023-03-20T16:56:09;44.63;;;14.23;;
61009;SDS011;46897;55.340;86.082;2023-03-20T16:58:42;52.90;;;14.50;;
61009;SDS011;46897;55.340;86.082;2023-03-20T17:01:17;46.70;;;14.88;;
61009;SDS011;46897;55.340;86.082;2023-03-20T17:03:50;49.17;;;14.10;;
61009;SDS011;46897;55.340;86.082;2023-03-20T17:06:29;50.38;;;14.70;;